Time;durP1;ratioP1;P1;durP2;ratioP2;P2;SDS_P1;SDS_P2;PMS_P1;PMS_P2;Temp;Humidity;BMP_temperature;BMP_pressure;BME280_temperature;BME280_humidity;BME280_pressure;Samples;Min_cycle;Max_cycle;Signal;HPM_P1;HPM_P2
2021/01/28 00:00:41;;;;;;;10.30;9.03;;;;;;;-0.97;90.22;98907.27;1825015;78;21458;-69
2021/01/28 00:03:11;;;;;;;12.90;10.58;;;;;;;-0.97;90.37;98907.27;1825047;78;21538;-69
2021/01/28 00:05:42;;;;;;;11.65;10.00;;;;;;;-0.95;90.41;98904.23;1824710;78;20948;-69
2021/01/28 00:08:11;;;;;;;12.75;10.40;;;;;;;-0.93;90.36;98903.74;1825091;78;22064;-69
2021/01/28 00:10:39;;;;;;;14.18;10.20;;;;;;;-0.95;90.21;98900.39;1824828;78;20957;-69
2021/01/28 00:13:08;;;;;;;16.25;10.82;;;;;;;-0.96;90.42;98898.72;1825027;78;21582;-69
2021/01/28 00:15:36;;;;;;;14.87;9.70;;;;;;;-0.95;90.41;98901.67;1824964;78;21000;-69
2021/01/28 00:18:07;;;;;;;11.83;9.35;;;;;;;-0.94;90.43;98899.08;1824986;78;21637;-68
2021/01/28 00:20:46;;;;;;;8.90;7.80;;;;;;;-0.95;90.24;98901.67;1824948;78;21195;-69
2021/01/28 00:23:14;;;;;;;10.15;8.80;;;;;;;-0.98;90.29;98896.20;1824874;78;21001;-70
2021/01/28 00:25:43;;;;;;;11.40;9.05;;;;;;;-1.01;90.39;98888.18;1824947;78;21021;-69
2021/01/28 00:28:14;;;;;;;10.72;8.43;;;;;;;-1.01;90.57;98879.23;1824870;78;21478;-70
2021/01/28 00:30:45;;;;;;;12.43;9.83;;;;;;;-0.99;90.55;98881.75;1825050;78;20973;-69
2021/01/28 00:33:20;;;;;;;11.80;8.98;;;;;;;-0.99;90.60;98887.30;1824960;78;21124;-69
2021/01/28 00:35:50;;;;;;;10.30;8.28;;;;;;;-0.98;90.65;98881.31;1825203;78;21542;-66
2021/01/28 00:38:24;;;;;;;12.25;8.58;;;;;;;-0.97;90.72;98872.33;1825559;78;20933;-69
2021/01/28 00:40:52;;;;;;;10.82;8.65;;;;;;;-0.95;90.65;98871.84;1825261;78;21514;-69
2021/01/28 00:43:21;;;;;;;12.13;10.08;;;;;;;-0.94;90.70;98859.47;1825529;78;21483;-69
2021/01/28 00:45:50;;;;;;;10.45;8.80;;;;;;;-0.94;90.73;98857.36;1825487;78;21349;-65
2021/01/28 00:48:20;;;;;;;13.22;9.08;;;;;;;-0.94;90.79;98846.70;1825276;78;21498;-64
2021/01/28 00:50:49;;;;;;;12.10;8.78;;;;;;;-0.95;90.73;98838.63;1824896;78;21478;-64
2021/01/28 00:53:20;;;;;;;10.18;8.78;;;;;;;-0.95;90.88;98839.91;1824903;78;20918;-64
2021/01/28 00:55:49;;;;;;;11.90;10.08;;;;;;;-0.95;90.89;98837.36;1824956;78;20921;-65
2021/01/28 00:58:21;;;;;;;13.28;9.20;;;;;;;-0.94;90.95;98829.25;1824285;78;21361;-64
2021/01/28 01:00:50;;;;;;;11.12;9.35;;;;;;;-0.94;91.00;98836.48;1824823;78;20905;-64
2021/01/28 01:03:21;;;;;;;13.98;9.35;;;;;;;-0.93;91.04;98838.15;1825067;78;20929;-64
2021/01/28 01:05:49;;;;;;;11.68;9.13;;;;;;;-0.93;90.89;98824.09;1824888;78;20913;-64
2021/01/28 01:08:29;;;;;;;11.68;8.88;;;;;;;-0.96;90.91;98816.52;1825141;78;21367;-64
2021/01/28 01:11:05;;;;;;;12.18;8.58;;;;;;;-0.99;91.03;98808.94;1815229;78;22784;-65
2021/01/28 01:13:35;;;;;;;12.37;9.28;;;;;;;-1.01;91.11;98800.05;1812033;79;21396;-64
2021/01/28 01:16:06;;;;;;;9.75;8.38;;;;;;;-1.02;91.08;98784.31;1810715;79;20993;-64
2021/01/28 01:18:35;;;;;;;10.95;8.65;;;;;;;-1.06;91.19;98784.01;1811970;79;21008;-64
2021/01/28 01:21:05;;;;;;;10.05;8.70;;;;;;;-1.08;91.29;98784.49;1812012;78;21617;-64
2021/01/28 01:23:33;;;;;;;10.65;9.55;;;;;;;-1.09;91.37;98778.98;1782690;79;22199;-64
2021/01/28 01:26:06;;;;;;;9.65;7.75;;;;;;;-1.11;91.35;98782.47;1811518;79;21574;-64
2021/01/28 01:28:34;;;;;;;9.55;7.37;;;;;;;-1.12;91.63;98789.29;1812026;79;21538;-64
2021/01/28 01:31:04;;;;;;;11.60;8.25;;;;;;;-1.12;91.57;98791.84;1811146;79;21016;-64
2021/01/28 01:33:33;;;;;;;12.07;9.08;;;;;;;-1.15;91.54;98798.31;1812058;79;21587;-65
2021/01/28 01:36:09;;;;;;;;;;;;;;;-1.16;91.59;98804.30;1814591;79;21479;-64
2021/01/28 01:38:39;;;;;;;8.93;7.87;;;;;;;-1.15;91.66;98808.53;1811122;79;20782;-64
2021/01/28 01:41:08;;;;;;;11.45;8.80;;;;;;;-1.13;91.69;98807.22;1811967;79;21475;-64
2021/01/28 01:43:38;;;;;;;9.60;7.80;;;;;;;-1.10;91.63;98804.58;1811808;79;21479;-64
2021/01/28 01:46:10;;;;;;;9.40;8.20;;;;;;;-1.08;91.50;98800.26;1782793;79;21432;-64
2021/01/28 01:48:49;;;;;;;10.53;8.85;;;;;;;-1.08;91.37;98792.16;1811975;79;21111;-64
2021/01/28 01:51:27;;;;;;;12.85;9.95;;;;;;;-1.06;91.29;98803.61;1809286;79;21487;-64
2021/01/28 01:54:10;;;;;;;15.08;10.90;;;;;;;-1.03;91.27;98817.57;1812069;79;21472;-65
2021/01/28 01:56:45;;;;;;;11.48;9.25;;;;;;;-1.02;91.15;98815.41;1811733;79;20929;-64
2021/01/28 01:59:33;;;;;;;12.15;10.05;;;;;;;-1.02;91.05;98812.42;1811973;79;21016;-64
2021/01/28 02:02:21;;;;;;;10.48;9.38;;;;;;;-1.01;90.90;98801.76;1811953;78;22334;-64
2021/01/28 02:05:16;;;;;;;10.50;9.38;;;;;;;-1.02;90.90;98797.53;1811966;79;21467;-64
2021/01/28 02:07:52;;;;;;;12.13;8.83;;;;;;;-1.04;90.97;98795.45;1782134;78;21551;-65
2021/01/28 02:10:39;;;;;;;9.80;8.30;;;;;;;-1.07;91.11;98784.89;1820259;78;21498;-64
2021/01/28 02:13:09;;;;;;;13.68;8.95;;;;;;;-1.04;91.13;98784.80;1826415;78;21426;-64
2021/01/28 02:15:40;;;;;;;10.50;9.35;;;;;;;-1.01;90.98;98785.16;1830594;78;22726;-63
2021/01/28 02:18:09;;;;;;;9.68;8.68;;;;;;;-1.03;90.87;98780.53;1830942;78;21504;-66
2021/01/28 02:21:02;;;;;;;12.93;10.30;;;;;;;-1.03;90.87;98785.20;1827959;78;21494;-64
2021/01/28 02:24:10;;;;;;;11.20;9.28;;;;;;;-1.05;90.91;98765.69;1830987;78;21463;-63
2021/01/28 02:26:47;;;;;;;12.58;10.18;;;;;;;-1.04;90.89;98757.98;1830963;78;20929;-64
2021/01/28 02:29:34;;;;;;;11.20;9.75;;;;;;;-1.03;90.93;98758.37;1831011;78;22157;-64
2021/01/28 02:32:03;;;;;;;11.38;9.83;;;;;;;-1.01;90.75;98768.11;1830815;78;21023;-63
2021/01/28 02:34:34;;;;;;;12.53;9.93;;;;;;;-1.00;90.67;98776.61;1830774;78;20988;-64
2021/01/28 02:37:17;;;;;;;12.60;9.68;;;;;;;-0.99;90.58;98785.95;1799240;78;21490;-64
2021/01/28 02:39:47;;;;;;;13.55;10.55;;;;;;;-0.99;90.52;98774.45;1828781;78;20940;-64
2021/01/28 02:42:22;;;;;;;13.65;10.28;;;;;;;-0.99;90.47;98762.95;1830734;78;22244;-64
2021/01/28 02:44:58;;;;;;;12.03;10.00;;;;;;;-0.98;90.38;98763.35;1830059;78;21655;-64
2021/01/28 02:47:52;;;;;;;14.13;10.35;;;;;;;-0.99;90.37;98749.34;1831105;78;21557;-64
2021/01/28 02:50:26;;;;;;;14.40;9.28;;;;;;;-1.01;90.69;98737.45;1827991;78;21513;-63
2021/01/28 02:52:56;;;;;;;12.88;9.78;;;;;;;-0.96;90.92;98735.20;1798748;78;21024;-63
2021/01/28 02:55:26;;;;;;;11.48;9.55;;;;;;;-0.92;90.91;98729.95;1831207;78;22238;-63
2021/01/28 02:57:55;;;;;;;11.33;9.58;;;;;;;-0.86;90.88;98730.21;1831164;78;21441;-64
2021/01/28 03:00:30;;;;;;;12.93;9.33;;;;;;;-0.81;90.38;98738.58;1831186;78;21438;-63
2021/01/28 03:02:59;;;;;;;13.80;10.98;;;;;;;-0.76;90.58;98736.69;1831274;78;20941;-63
2021/01/28 03:05:30;;;;;;;9.90;8.80;;;;;;;-0.71;90.44;98734.83;1826360;78;20929;-63
2021/01/28 03:07:58;;;;;;;12.55;10.05;;;;;;;-0.66;90.22;98729.13;1831090;78;22060;-64
2021/01/28 03:10:27;;;;;;;10.90;9.10;;;;;;;-0.62;89.70;98725.59;1830987;78;21506;-63
2021/01/28 03:13:01;;;;;;;14.95;11.08;;;;;;;-0.61;89.19;98722.59;1831020;78;20964;-63
2021/01/28 03:15:37;;;;;;;;;;;;;;;-0.64;89.12;98718.41;1832114;78;21462;-64
2021/01/28 03:18:06;;;;;;;12.73;10.35;;;;;;;-0.62;89.38;98717.09;1831227;78;20148;-64
2021/01/28 03:20:37;;;;;;;15.35;11.90;;;;;;;-0.60;89.13;98719.99;1831116;78;21127;-63
2021/01/28 03:23:08;;;;;;;13.80;11.25;;;;;;;-0.56;89.32;98731.80;1829683;78;20996;-64
2021/01/28 03:25:56;;;;;;;14.38;10.58;;;;;;;-0.51;89.04;98729.93;1831100;78;21985;-68
2021/01/28 03:28:25;;;;;;;12.10;9.95;;;;;;;-0.46;88.97;98731.89;1831058;78;21557;-68
2021/01/28 03:30:55;;;;;;;12.63;10.88;;;;;;;-0.40;88.71;98732.14;1830275;78;20952;-68
2021/01/28 03:33:24;;;;;;;14.68;11.68;;;;;;;-0.35;88.37;98736.64;1831081;78;22160;-67
2021/01/28 03:35:53;;;;;;;12.05;10.70;;;;;;;-0.33;88.13;98725.91;1831052;78;21598;-67
2021/01/28 03:38:22;;;;;;;14.15;10.93;;;;;;;-0.33;87.91;98727.19;1831101;78;21574;-68
2021/01/28 03:40:53;;;;;;;13.28;11.43;;;;;;;-0.34;87.43;98726.36;1830857;78;21035;-68
2021/01/28 03:43:22;;;;;;;16.73;12.45;;;;;;;-0.39;87.56;98733.78;1831175;78;21481;-68
2021/01/28 03:45:52;;;;;;;15.93;11.75;;;;;;;-0.42;87.58;98737.75;1831100;78;22339;-68
2021/01/28 03:48:21;;;;;;;12.25;10.43;;;;;;;-0.45;87.70;98734.02;1831036;78;21570;-68
2021/01/28 03:50:54;;;;;;;13.00;10.63;;;;;;;-0.50;88.00;98728.20;1829433;78;21427;-68
2021/01/28 03:53:30;;;;;;;13.35;11.55;;;;;;;-0.52;88.13;98727.42;1829593;78;21518;-68
2021/01/28 03:56:00;;;;;;;21.80;14.25;;;;;;;-0.57;88.36;98729.28;1830340;78;21467;-68
2021/01/28 03:58:30;;;;;;;15.98;13.48;;;;;;;-0.60;88.54;98726.83;1831042;78;22730;-67
2021/01/28 04:01:18;;;;;;;13.85;12.30;;;;;;;-0.63;88.72;98733.31;1831017;78;21517;-68
2021/01/28 04:03:52;;;;;;;12.35;10.58;;;;;;;-0.67;89.03;98732.12;1831072;78;20928;-68
2021/01/28 04:06:36;;;;;;;42.05;22.07;;;;;;;-0.68;89.11;98729.62;1831045;78;21541;-67
2021/01/28 04:09:19;;;;;;;88.72;40.33;;;;;;;-0.72;89.15;98717.81;1829546;78;21447;-68
2021/01/28 04:11:52;;;;;;;86.65;41.83;;;;;;;-0.77;89.26;98708.17;1825930;78;22631;-68
2021/01/28 04:14:38;;;;;;;51.35;27.02;;;;;;;-0.83;89.53;98700.29;1824935;78;21494;-68
2021/01/28 04:17:09;;;;;;;41.63;25.37;;;;;;;-0.87;89.72;98692.32;1824744;78;20938;-68
2021/01/28 04:19:37;;;;;;;32.83;20.82;;;;;;;-0.92;89.75;98680.13;1824925;78;21522;-67
2021/01/28 04:22:06;;;;;;;37.88;24.60;;;;;;;-0.94;89.98;98684.89;1825099;78;21570;-68
2021/01/28 04:24:36;;;;;;;33.73;19.40;;;;;;;-0.97;90.10;98678.16;1824933;78;22139;-67
2021/01/28 04:27:05;;;;;;;36.30;23.38;;;;;;;-0.99;90.23;98679.92;1824891;78;21427;-67
2021/01/28 04:29:35;;;;;;;27.45;18.50;;;;;;;-1.03;90.32;98675.79;1821586;78;20945;-67
2021/01/28 04:32:08;;;;;;;37.17;22.27;;;;;;;-1.08;90.47;98672.54;1824046;78;21645;-67
2021/01/28 04:34:41;;;;;;;33.30;20.80;;;;;;;-1.09;90.70;98679.80;1821614;78;21497;-68
2021/01/28 04:37:11;;;;;;;35.23;21.97;;;;;;;-1.11;90.77;98678.58;1823934;78;21203;-67
2021/01/28 04:39:52;;;;;;;33.35;21.37;;;;;;;-1.09;90.84;98687.47;1804859;78;20964;-67
2021/01/28 04:42:24;;;;;;;34.90;21.20;;;;;;;-1.09;90.96;98688.30;1824898;78;20937;-67
2021/01/28 04:44:53;;;;;;;30.12;17.57;;;;;;;-1.09;91.00;98688.30;1825024;78;21589;-68
2021/01/28 04:47:26;;;;;;;32.38;19.75;;;;;;;-1.08;90.91;98691.25;1824864;78;21556;-67
2021/01/28 04:50:13;;;;;;;27.20;18.73;;;;;;;-1.07;90.96;98689.53;1824957;78;22328;-67
2021/01/28 04:52:43;;;;;;;21.45;15.80;;;;;;;-1.07;90.89;98680.59;1823487;78;21049;-68
2021/01/28 04:55:38;;;;;;;18.77;14.25;;;;;;;-1.08;90.88;98669.98;1825086;78;21427;-67
2021/01/28 04:58:07;;;;;;;20.75;13.58;;;;;;;-1.09;90.96;98668.31;1824992;78;20957;-67
2021/01/28 05:00:37;;;;;;;20.68;14.07;;;;;;;-1.07;91.66;98663.99;1801175;78;20985;-66
2021/01/28 05:03:27;;;;;;;15.53;11.70;;;;;;;-1.01;91.60;98672.75;1823796;78;22324;-67
2021/01/28 05:06:00;;;;;;;15.43;11.18;;;;;;;-0.95;91.54;98678.11;1818515;78;21486;-67
2021/01/28 05:08:30;;;;;;;17.82;12.70;;;;;;;-0.88;91.27;98679.59;1823369;78;20931;-66
2021/01/28 05:11:00;;;;;;;14.53;10.95;;;;;;;-0.84;90.89;98676.06;1804412;78;21017;-67
2021/01/28 05:13:49;;;;;;;19.12;11.80;;;;;;;-0.82;90.51;98675.13;1807613;79;21567;-67
2021/01/28 05:16:33;;;;;;;16.15;11.40;;;;;;;-0.83;90.03;98672.63;1778042;79;22172;-66
2021/01/28 05:19:50;;;;;;;12.05;9.15;;;;;;;-0.86;90.00;98671.00;1699502;83;28674;-68
2021/01/28 05:22:37;;;;;;;11.43;10.03;;;;;;;-0.87;89.78;98668.05;1699383;83;21650;-67
2021/01/28 05:25:34;;;;;;;18.37;13.05;;;;;;;-0.86;89.80;98659.50;1848550;76;28108;-67
2021/01/28 05:28:37;;;;;;;14.68;10.72;;;;;;;-0.94;89.58;98655.07;1818465;78;21498;-67
2021/01/28 05:31:32;;;;;;;16.17;12.40;;;;;;;-0.99;89.57;98649.27;1780225;79;22173;-67
2021/01/28 05:34:11;;;;;;;33.20;18.73;;;;;;;-1.04;89.66;98637.08;1800210;79;20929;-65
2021/01/28 05:36:56;;;;;;;23.22;14.80;;;;;;;-1.08;89.74;98620.17;1813561;79;21025;-65
2021/01/28 05:39:36;;;;;;;16.12;10.88;;;;;;;-1.12;89.79;98622.43;1811389;79;21013;-64
2021/01/28 05:42:14;;;;;;;22.27;13.45;;;;;;;-1.16;89.96;98617.86;1818113;79;20882;-64
2021/01/28 05:44:44;;;;;;;19.62;11.68;;;;;;;-1.15;90.24;98622.08;1818389;79;22331;-65
2021/01/28 05:47:27;;;;;;;28.12;17.25;;;;;;;-1.12;90.29;98625.81;1818436;78;21416;-67
2021/01/28 05:50:28;;;;;;;29.77;17.87;;;;;;;-1.08;90.19;98622.73;1815400;79;21495;-67
2021/01/28 05:53:16;;;;;;;28.87;16.95;;;;;;;-1.06;90.02;98624.80;1790486;79;20910;-66
2021/01/28 05:55:48;;;;;;;32.85;20.27;;;;;;;-1.04;89.81;98627.70;1817035;79;20883;-65
2021/01/28 05:58:25;;;;;;;31.07;17.98;;;;;;;-1.03;89.93;98640.86;1818233;79;22628;-65
2021/01/28 06:01:11;;;;;;;30.92;18.30;;;;;;;-0.99;89.82;98635.22;1811804;77;21001;-68
2021/01/28 06:04:24;;;;;;;24.57;15.35;;;;;;;-0.95;89.95;98643.63;1765573;77;21046;-63
2021/01/28 06:07:11;;;;;;;22.70;14.47;;;;;;;-0.87;89.93;98637.38;1739484;81;21064;-68
2021/01/28 06:10:39;;;;;;;28.25;17.42;;;;;;;-0.79;89.68;98632.00;1748397;81;22190;-69
2021/01/28 06:13:44;;;;;;;28.27;17.87;;;;;;;-0.78;89.21;98626.84;1709008;81;22351;-69
2021/01/28 06:16:52;;;;;;;19.42;13.85;;;;;;;-0.78;88.75;98641.34;1726107;81;21049;-69
2021/01/28 06:20:05;;;;;;;32.93;19.67;;;;;;;-0.81;88.65;98640.19;1808265;77;21009;-69
2021/01/28 06:23:03;;;;;;;35.48;21.20;;;;;;;-0.85;88.64;98629.67;1698756;82;21661;-66
2021/01/28 06:26:00;;;;;;;31.93;17.90;;;;;;;-0.85;88.73;98625.39;1726052;79;21567;-71
2021/01/28 06:29:23;;;;;;;25.50;16.50;;;;;;;-0.83;88.67;98618.52;1737781;81;21621;-68
2021/01/28 06:32:11;;;;;;;22.93;14.10;;;;;;;-0.83;88.66;98626.18;1792332;79;21088;-66
2021/01/28 06:35:14;;;;;;;29.77;17.90;;;;;;;-0.83;88.56;98630.02;1724176;79;21098;-66
2021/01/28 06:38:27;;;;;;;23.35;14.60;;;;;;;-0.83;88.53;98639.40;1729877;81;21610;-68
2021/01/28 06:41:01;;;;;;;21.75;15.93;;;;;;;-0.81;88.54;98637.19;1682535;82;21085;-63
2021/01/28 06:44:17;;;;;;;18.95;13.50;;;;;;;-0.78;88.40;98628.11;1706966;82;22608;-66
2021/01/28 06:47:01;;;;;;;23.32;17.15;;;;;;;-0.73;88.15;98644.14;1832660;77;28156;-68
2021/01/28 06:50:02;;;;;;;34.60;21.87;;;;;;;-0.79;88.25;98639.22;1711620;83;21602;-70
2021/01/28 06:52:58;;;;;;;16.30;11.05;;;;;;;-0.77;88.19;98635.34;1798013;78;22101;-67
2021/01/28 06:56:02;;;;;;;14.23;10.15;;;;;;;-0.73;88.27;98638.19;1807979;78;21056;-70
2021/01/28 06:58:55;;;;;;;13.60;11.05;;;;;;;-0.70;88.00;98643.20;1757932;77;20996;-67
2021/01/28 07:01:55;;;;;;;16.27;9.68;;;;;;;-0.71;88.03;98638.53;1789507;77;21053;-67
2021/01/28 07:04:37;;;;;;;17.90;15.10;;;;;;;-0.68;87.91;98614.16;1820146;76;21016;-69
2021/01/28 07:07:15;;;;;;;13.03;11.03;;;;;;;-0.67;87.73;98609.44;1808223;78;21198;-72
2021/01/28 07:10:08;;;;;;;13.53;11.25;;;;;;;-0.66;87.85;98619.22;1714170;81;21027;-73
2021/01/28 07:12:43;;;;;;;;;;;;;;;-0.64;87.81;98621.72;1720009;81;20962;-67
2021/01/28 07:15:27;;;;;;;13.45;9.50;;;;;;;-0.57;87.76;98604.85;1861708;75;28638;-68
2021/01/28 07:18:10;;;;;;;16.80;10.75;;;;;;;-0.61;87.59;98608.39;1834030;76;21029;-67
2021/01/28 07:21:03;;;;;;;13.40;8.40;;;;;;;-0.60;87.84;98601.56;1792336;78;21841;-66
2021/01/28 07:23:38;;;;;;;12.70;9.60;;;;;;;-0.58;87.91;98611.30;1794578;78;21041;-66
2021/01/28 07:26:16;;;;;;;11.55;10.25;;;;;;;-0.59;87.72;98603.23;1768079;80;21469;-65
2021/01/28 07:28:48;;;;;;;17.42;13.80;;;;;;;-0.59;87.73;98598.13;1780918;80;21649;-66
2021/01/28 07:31:32;;;;;;;16.73;12.82;;;;;;;-0.59;87.60;98594.28;1747102;79;20972;-66
2021/01/28 07:34:06;;;;;;;16.00;12.65;;;;;;;-0.61;87.65;98598.17;1766961;80;21199;-65
2021/01/28 07:36:49;;;;;;;18.40;13.10;;;;;;;-0.62;87.78;98589.27;1779193;80;21068;-65
2021/01/28 07:39:38;;;;;;;18.48;11.73;;;;;;;-0.64;87.90;98584.22;1778598;80;21019;-66
2021/01/28 07:42:29;;;;;;;15.98;12.10;;;;;;;-0.64;87.99;98575.71;1765048;80;21005;-67
2021/01/28 07:45:35;;;;;;;17.25;11.33;;;;;;;-0.65;88.15;98590.66;1761596;80;21080;-65
2021/01/28 07:48:06;;;;;;;16.07;11.88;;;;;;;-0.65;88.56;98595.33;1776767;80;21418;-68
2021/01/28 07:51:18;;;;;;;12.28;9.05;;;;;;;-0.55;88.78;98592.02;1880895;74;28173;-69
2021/01/28 07:53:50;;;;;;;11.53;8.83;;;;;;;-0.58;88.66;98583.17;1905496;74;20910;-67
2021/01/28 07:56:44;;;;;;;13.13;9.25;;;;;;;-0.58;88.86;98579.34;1881110;74;22520;-66
2021/01/28 07:59:36;;;;;;;10.45;7.90;;;;;;;-0.59;89.06;98575.11;1891937;74;21077;-68
2021/01/28 08:02:28;;;;;;;10.90;8.38;;;;;;;-0.60;89.33;98584.95;1880412;74;21019;-67
2021/01/28 08:05:20;;;;;;;11.25;8.88;;;;;;;-0.62;89.66;98588.00;1805678;77;21037;-69
2021/01/28 08:08:07;;;;;;;9.08;7.97;;;;;;;-0.59;89.92;98592.56;1841623;76;21021;-67
2021/01/28 08:10:41;;;;;;;11.18;9.43;;;;;;;-0.56;89.85;98584.80;1815674;77;21355;-64
2021/01/28 08:13:25;;;;;;;10.63;8.65;;;;;;;-0.53;89.97;98589.80;1826529;77;21654;-66
2021/01/28 08:16:11;;;;;;;10.20;8.58;;;;;;;-0.50;90.00;98590.98;1816403;77;20965;-65
2021/01/28 08:18:43;;;;;;;;;;;;;;;-0.46;90.01;98581.48;1813655;76;21069;-66
2021/01/28 08:21:20;;;;;;;9.83;8.53;;;;;;;-0.43;90.04;98585.21;1805909;76;20523;-66
2021/01/28 08:23:50;;;;;;;19.70;13.32;;;;;;;-0.41;90.12;98588.55;1806052;76;21479;-68
2021/01/28 08:26:34;;;;;;;14.63;11.57;;;;;;;-0.38;90.13;98590.52;1824402;78;21085;-65
2021/01/28 08:29:15;;;;;;;11.10;9.35;;;;;;;-0.32;90.10;98596.31;1823304;78;21523;-67
2021/01/28 08:31:55;;;;;;;11.70;10.48;;;;;;;-0.27;89.80;98603.39;1827262;77;21047;-68
2021/01/28 08:34:27;;;;;;;28.17;20.05;;;;;;;-0.25;89.75;98601.61;1826981;77;20981;-68
2021/01/28 08:37:05;;;;;;;15.28;11.73;;;;;;;-0.21;89.73;98596.78;1795254;78;21363;-68
2021/01/28 08:39:36;;;;;;;12.25;9.68;;;;;;;-0.17;89.65;98595.78;1837050;76;21203;-67
2021/01/28 08:42:16;;;;;;;24.07;18.27;;;;;;;-0.16;89.59;98594.90;1836441;77;21021;-67
2021/01/28 08:44:48;;;;;;;22.20;18.80;;;;;;;-0.15;89.43;98601.69;1826793;76;21629;-69
2021/01/28 08:47:23;;;;;;;17.98;13.48;;;;;;;-0.12;89.59;98609.25;1800885;76;21051;-68
2021/01/28 08:50:17;;;;;;;13.78;10.75;;;;;;;-0.08;89.56;98608.25;1839871;76;21428;-68
2021/01/28 08:52:47;;;;;;;10.80;9.58;;;;;;;-0.04;89.28;98598.30;1829544;77;21565;-67
2021/01/28 08:55:24;;;;;;;26.33;16.42;;;;;;;-0.06;89.20;98589.40;1819180;77;21191;-67
2021/01/28 08:57:56;;;;;;;9.78;8.78;;;;;;;-0.06;89.18;98595.80;1840923;77;21017;-70
2021/01/28 09:00:25;;;;;;;10.53;8.40;;;;;;;-0.03;89.21;98592.30;1790281;78;21608;-71
2021/01/28 09:02:54;;;;;;;8.33;7.40;;;;;;;0.02;89.01;98584.42;1822688;77;21029;-67
2021/01/28 09:05:27;;;;;;;8.93;7.85;;;;;;;0.02;88.75;98581.42;1823110;77;20982;-67
2021/01/28 09:08:02;;;;;;;15.70;13.38;;;;;;;0.01;88.80;98574.63;1836174;77;20977;-66
2021/01/28 09:10:39;;;;;;;8.78;7.47;;;;;;;0.03;88.96;98576.69;1840609;77;20990;-71
2021/01/28 09:13:29;;;;;;;8.38;7.40;;;;;;;0.05;88.80;98563.84;1854483;77;21514;-72
2021/01/28 09:16:15;;;;;;;8.80;7.37;;;;;;;0.06;88.45;98548.88;1842665;77;21187;-71
2021/01/28 09:18:47;;;;;;;8.73;7.67;;;;;;;0.00;88.45;98539.73;1834945;77;20961;-68
2021/01/28 09:21:18;;;;;;;8.15;7.10;;;;;;;-0.04;88.85;98548.41;1820355;77;21041;-68
2021/01/28 09:24:07;;;;;;;8.20;7.40;;;;;;;-0.04;88.95;98536.89;1825529;77;21624;-68
2021/01/28 09:26:39;;;;;;;9.23;7.90;;;;;;;-0.03;88.99;98534.72;1804665;78;20989;-71
2021/01/28 09:29:38;;;;;;;8.55;7.72;;;;;;;-0.04;89.08;98531.78;1793946;76;21957;-68
2021/01/28 09:32:21;;;;;;;8.43;6.85;;;;;;;-0.02;89.30;98533.39;1802180;78;21620;-68
2021/01/28 09:35:22;;;;;;;12.80;8.03;;;;;;;-0.01;89.09;98535.06;1815487;78;21679;-68
2021/01/28 09:38:14;;;;;;;8.98;8.08;;;;;;;-0.01;89.09;98541.90;1815423;78;21040;-67
2021/01/28 09:43:33;;;;;;;10.25;8.03;;;;;;;-0.04;89.26;98521.55;1884586;75;21244;-66
2021/01/28 09:46:22;;;;;;;8.43;7.60;;;;;;;-0.03;89.25;98533.45;1877149;75;21052;-69
2021/01/28 09:48:56;;;;;;;10.15;8.90;;;;;;;-0.05;89.05;98540.34;1876296;75;21569;-64
2021/01/28 09:51:31;;;;;;;10.58;8.48;;;;;;;-0.10;89.18;98526.44;1877667;74;21565;-68
2021/01/28 09:54:13;;;;;;;10.53;9.43;;;;;;;-0.07;89.43;98511.42;1810174;77;21645;-65
2021/01/28 09:56:43;;;;;;;11.60;9.48;;;;;;;0.02;89.54;98502.54;1824812;76;21274;-65
2021/01/28 09:59:14;;;;;;;9.13;8.23;;;;;;;0.12;89.25;98494.46;1825948;76;21629;-66
2021/01/28 10:01:43;;;;;;;8.65;7.08;;;;;;;0.22;88.90;98506.46;1818335;78;21604;-68
2021/01/28 10:04:14;;;;;;;8.48;7.20;;;;;;;0.27;88.51;98508.40;1842964;76;21625;-66
2021/01/28 10:06:43;;;;;;;9.40;8.38;;;;;;;0.29;88.21;98513.02;1826313;76;21706;-70
2021/01/28 10:09:12;;;;;;;8.48;7.67;;;;;;;0.29;88.33;98511.28;1821283;77;21148;-69
2021/01/28 10:11:41;;;;;;;9.90;8.90;;;;;;;0.30;88.02;98510.39;1811927;78;21081;-66
2021/01/28 10:14:10;;;;;;;9.78;7.50;;;;;;;0.28;87.91;98513.91;1802235;78;21000;-69
2021/01/28 10:16:39;;;;;;;11.60;9.50;;;;;;;0.25;88.06;98517.86;1819592;78;21041;-69
2021/01/28 10:19:09;;;;;;;8.50;7.58;;;;;;;0.25;88.25;98520.42;1831628;76;21613;-68
2021/01/28 10:21:40;;;;;;;10.45;8.40;;;;;;;0.23;88.17;98520.48;1820743;76;21134;-73
2021/01/28 10:24:10;;;;;;;7.58;6.78;;;;;;;0.19;88.08;98522.77;1760734;79;21564;-67
2021/01/28 10:26:44;;;;;;;9.08;7.17;;;;;;;0.12;88.14;98510.26;1804227;78;21072;-68
2021/01/28 10:29:14;;;;;;;8.63;7.80;;;;;;;0.07;88.14;98504.48;1786038;78;21749;-69
2021/01/28 10:31:52;;;;;;;9.13;6.97;;;;;;;0.02;88.49;98507.66;1811443;77;20986;-71
2021/01/28 10:34:28;;;;;;;10.20;9.00;;;;;;;0.02;88.62;98507.66;1839131;75;21360;-69
2021/01/28 10:37:04;;;;;;;8.25;7.22;;;;;;;-0.01;88.61;98508.64;1835662;76;21166;-69
2021/01/28 10:39:48;;;;;;;10.08;8.35;;;;;;;-0.01;88.69;98499.68;1885135;74;21025;-69
2021/01/28 10:42:26;;;;;;;8.63;7.35;;;;;;;-0.01;88.89;98477.93;1908390;74;21660;-70
2021/01/28 10:44:57;;;;;;;8.55;6.95;;;;;;;0.02;88.86;98470.11;1893167;74;21049;-67
2021/01/28 10:47:26;;;;;;;9.25;7.12;;;;;;;0.03;88.53;98471.77;1887308;74;21188;-69
2021/01/28 10:49:57;;;;;;;8.63;7.67;;;;;;;0.00;88.54;98462.97;1812383;77;21084;-69
2021/01/28 10:52:26;;;;;;;10.15;8.55;;;;;;;-0.02;88.66;98455.80;1813239;78;21244;-68
2021/01/28 10:54:54;;;;;;;11.75;9.75;;;;;;;-0.01;88.80;98457.46;1809476;76;21036;-68
2021/01/28 10:57:24;;;;;;;11.70;8.45;;;;;;;0.03;88.81;98465.83;1821055;77;20989;-68
2021/01/28 10:59:54;;;;;;;10.70;7.92;;;;;;;0.08;88.95;98465.20;1785238;78;21367;-67
2021/01/28 11:02:23;;;;;;;9.18;8.05;;;;;;;0.12;88.60;98451.40;1884583;74;20972;-68
2021/01/28 11:04:52;;;;;;;8.90;7.15;;;;;;;0.13;88.40;98452.62;1821622;77;20970;-67
2021/01/28 11:07:20;;;;;;;16.65;8.78;;;;;;;0.12;88.21;98458.62;1814108;77;20961;-66
2021/01/28 11:09:50;;;;;;;14.68;10.80;;;;;;;0.09;88.36;98448.95;1799316;78;20988;-65
2021/01/28 11:12:18;;;;;;;12.15;8.70;;;;;;;0.11;88.52;98458.69;1820165;76;21209;-66
2021/01/28 11:14:47;;;;;;;20.72;12.90;;;;;;;0.12;88.46;98463.75;1809760;76;21068;-65
2021/01/28 11:17:16;;;;;;;17.32;11.68;;;;;;;0.11;88.39;98460.80;1863087;76;21100;-65
2021/01/28 11:19:46;;;;;;;19.80;12.05;;;;;;;0.12;88.57;98451.40;1833511;76;21634;-65
2021/01/28 11:22:15;;;;;;;22.13;15.05;;;;;;;0.10;88.54;98456.58;1826998;77;21555;-66
2021/01/28 11:24:43;;;;;;;13.60;11.15;;;;;;;0.09;88.60;98448.95;1842376;76;21182;-64
2021/01/28 11:27:14;;;;;;;18.10;12.10;;;;;;;0.07;88.50;98439.23;1873656;74;20978;-65
2021/01/28 11:29:47;;;;;;;12.98;10.55;;;;;;;0.01;88.48;98432.62;1877866;74;20980;-66
2021/01/28 11:32:15;;;;;;;14.73;11.45;;;;;;;-0.04;88.79;98433.27;1878223;74;22301;-65
2021/01/28 11:34:44;;;;;;;14.80;11.28;;;;;;;-0.06;89.14;98441.00;1836247;77;21029;-64
2021/01/28 11:37:12;;;;;;;10.75;9.50;;;;;;;-0.07;89.13;98442.34;1858177;76;22343;-64
2021/01/28 11:39:42;;;;;;;9.33;7.92;;;;;;;-0.09;89.36;98446.69;1837784;76;21660;-66
2021/01/28 11:42:11;;;;;;;15.13;11.08;;;;;;;-0.09;89.47;98444.96;1824072;77;20985;-65
2021/01/28 11:44:39;;;;;;;13.03;10.03;;;;;;;-0.10;89.74;98453.97;1802707;77;22414;-65
2021/01/28 11:47:08;;;;;;;9.45;7.95;;;;;;;-0.07;90.17;98458.97;1837766;76;21095;-64
2021/01/28 11:49:37;;;;;;;11.40;8.28;;;;;;;-0.05;90.44;98453.35;1827058;77;21342;-64
2021/01/28 11:52:05;;;;;;;10.45;8.10;;;;;;;-0.01;90.62;98458.74;1811371;76;21052;-64
2021/01/28 11:54:34;;;;;;;11.43;9.13;;;;;;;0.03;90.62;98461.98;1826474;76;20981;-64
2021/01/28 11:57:04;;;;;;;10.08;8.43;;;;;;;0.08;90.82;98465.20;1832637;76;21587;-63
2021/01/28 11:59:33;;;;;;;19.25;13.10;;;;;;;0.15;91.12;98461.52;1809049;77;21077;-66
2021/01/28 12:02:01;;;;;;;10.70;9.30;;;;;;;0.22;90.70;98457.83;1838824;76;21197;-65
2021/01/28 12:04:30;;;;;;;16.62;12.55;;;;;;;0.26;90.55;98455.09;1834862;76;21644;-68
2021/01/28 12:06:59;;;;;;;9.45;8.45;;;;;;;0.31;90.52;98461.31;1841902;76;21609;-64
2021/01/28 12:09:28;;;;;;;47.13;26.93;;;;;;;0.35;90.16;98457.73;1813829;78;21004;-67
2021/01/28 12:11:57;;;;;;;10.48;8.00;;;;;;;0.34;89.83;98465.03;1882109;74;20993;-66
2021/01/28 12:14:26;;;;;;;11.97;9.65;;;;;;;0.28;89.64;98467.83;1890972;74;21570;-67